Time;durP1;ratioP1;P1;durP2;ratioP2;P2;SDS_P1;SDS_P2;PMS_P1;PMS_P2;Temp;Humidity;BMP_temperature;BMP_pressure;BME280_temperature;BME280_humidity;BME280_pressure;Samples;Min_cycle;Max_cycle;Signal;HPM_P1;HPM_P2
2023/07/22 00:01:34;;;;;;;8.70;3.70;;;;;;;;;;5032895;28;20045;-85
2023/07/22 00:04:00;;;;;;;9.60;4.18;;;;;;;;;;5030456;28;20041;-86
2023/07/22 00:06:26;;;;;;;10.80;4.05;;;;;;;;;;5030444;28;20056;-85
2023/07/22 00:08:53;;;;;;;7.90;4.25;;;;;;;;;;5048196;28;20037;-85
2023/07/22 00:11:20;;;;;;;6.72;4.07;;;;;;;;;;5044273;28;20566;-85
2023/07/22 00:13:46;;;;;;;5.30;3.05;;;;;;;;;;5029635;28;20063;-85
2023/07/22 00:16:12;;;;;;;6.95;3.88;;;;;;;;;;5029596;28;20045;-85
2023/07/22 00:18:38;;;;;;;5.78;3.33;;;;;;;;;;5022194;28;20056;-85
2023/07/22 00:21:04;;;;;;;6.43;3.22;;;;;;;;;;5036144;28;20466;-85
2023/07/22 00:23:30;;;;;;;6.28;3.53;;;;;;;;;;5032102;28;20059;-85
2023/07/22 00:25:56;;;;;;;7.82;3.72;;;;;;;;;;5031680;28;20127;-85
2023/07/22 00:28:22;;;;;;;7.45;3.72;;;;;;;;;;5022073;28;20040;-85
2023/07/22 00:30:49;;;;;;;6.10;3.40;;;;;;;;;;5047826;28;20045;-84
2023/07/22 00:33:15;;;;;;;8.25;4.18;;;;;;;;;;5027410;28;20060;-85
2023/07/22 00:35:41;;;;;;;6.38;3.72;;;;;;;;;;5030003;28;20033;-85
2023/07/22 00:38:09;;;;;;;5.57;3.53;;;;;;;;;;5028962;28;20490;-85
2023/07/22 00:40:35;;;;;;;7.18;3.72;;;;;;;;;;5046331;28;20497;-85
2023/07/22 00:43:01;;;;;;;5.80;3.53;;;;;;;;;;5031733;28;20079;-85
2023/07/22 00:45:27;;;;;;;7.00;3.70;;;;;;;;;;5047671;28;20455;-85
2023/07/22 00:47:53;;;;;;;5.97;3.60;;;;;;;;;;5024046;28;20125;-85
2023/07/22 00:50:19;;;;;;;8.73;4.13;;;;;;;;;;5031811;28;20042;-85
2023/07/22 00:52:45;;;;;;;8.38;3.75;;;;;;;;;;5039466;28;20045;-85
2023/07/22 00:55:11;;;;;;;6.43;3.70;;;;;;;;;;5003863;28;20037;-85
2023/07/22 00:57:38;;;;;;;6.15;3.42;;;;;;;;;;5032784;28;20481;-85
2023/07/22 01:00:05;;;;;;;7.40;3.67;;;;;;;;;;5038849;28;20091;-85
2023/07/22 01:02:31;;;;;;;7.07;3.67;;;;;;;;;;5022763;28;20052;-85
2023/07/22 01:04:57;;;;;;;7.10;4.07;;;;;;;;;;5049454;28;20036;-85
2023/07/22 01:07:24;;;;;;;7.95;3.22;;;;;;;;;;5031375;28;20096;-86
2023/07/22 01:09:56;;;;;;;7.45;4.07;;;;;;;;;;5044927;28;20037;-85
2023/07/22 01:12:22;;;;;;;7.03;3.60;;;;;;;;;;5039727;28;20068;-85
2023/07/22 01:14:48;;;;;;;8.43;3.65;;;;;;;;;;5040628;28;20040;-85
2023/07/22 01:17:14;;;;;;;6.97;3.67;;;;;;;;;;5029705;28;20048;-85
2023/07/22 01:19:40;;;;;;;9.38;4.05;;;;;;;;;;5039753;28;20037;-85
2023/07/22 01:22:10;;;;;;;5.88;4.10;;;;;;;;;;5045584;28;20039;-85
2023/07/22 01:24:37;;;;;;;9.52;4.05;;;;;;;;;;5048146;28;20106;-85
2023/07/22 01:27:04;;;;;;;10.02;4.07;;;;;;;;;;5044698;28;20034;-85
2023/07/22 01:29:30;;;;;;;7.90;4.10;;;;;;;;;;5038365;28;20060;-85
2023/07/22 01:31:56;;;;;;;8.40;3.95;;;;;;;;;;5031294;28;20481;-85
2023/07/22 01:34:24;;;;;;;8.75;4.32;;;;;;;;;;5048325;28;20468;-85
2023/07/22 01:36:50;;;;;;;8.35;4.95;;;;;;;;;;5045669;28;20041;-85
2023/07/22 01:39:18;;;;;;;6.68;4.40;;;;;;;;;;5048849;28;20041;-85
2023/07/22 01:41:44;;;;;;;7.63;3.80;;;;;;;;;;5043539;28;20053;-85
2023/07/22 01:44:13;;;;;;;8.25;4.75;;;;;;;;;;5036418;28;20389;-85
2023/07/22 01:46:40;;;;;;;8.18;4.40;;;;;;;;;;5031152;28;20052;-85
2023/07/22 01:49:08;;;;;;;7.95;4.18;;;;;;;;;;5040249;28;20069;-85
2023/07/22 01:51:34;;;;;;;8.35;4.40;;;;;;;;;;5043942;28;20125;-85
2023/07/22 01:54:00;;;;;;;8.70;3.90;;;;;;;;;;5048484;28;20071;-85
2023/07/22 01:56:27;;;;;;;8.65;3.78;;;;;;;;;;5042097;28;20045;-85
2023/07/22 01:58:53;;;;;;;8.93;4.15;;;;;;;;;;5010432;28;20045;-84
2023/07/22 02:01:19;;;;;;;10.23;4.30;;;;;;;;;;5029530;28;20055;-85
2023/07/22 02:03:46;;;;;;;10.27;5.35;;;;;;;;;;5021449;28;20098;-85
2023/07/22 02:06:12;;;;;;;9.05;4.68;;;;;;;;;;5029479;28;20057;-85
2023/07/22 02:08:38;;;;;;;9.02;4.75;;;;;;;;;;5032407;28;20163;-85
2023/07/22 02:11:06;;;;;;;11.13;4.70;;;;;;;;;;5040242;28;20495;-85
2023/07/22 02:13:32;;;;;;;8.25;4.60;;;;;;;;;;5028716;28;20402;-85
2023/07/22 02:15:58;;;;;;;8.48;4.95;;;;;;;;;;5030294;28;20049;-85
2023/07/22 02:18:24;;;;;;;8.32;4.15;;;;;;;;;;5037250;28;20095;-85
2023/07/22 02:20:51;;;;;;;10.18;4.75;;;;;;;;;;5028925;28;20037;-85
2023/07/22 02:23:18;;;;;;;7.95;4.40;;;;;;;;;;5028394;28;20045;-85
2023/07/22 02:25:44;;;;;;;8.93;5.28;;;;;;;;;;5027083;28;20042;-85
2023/07/22 02:28:10;;;;;;;9.77;4.45;;;;;;;;;;5029977;28;20068;-85
2023/07/22 02:30:36;;;;;;;7.60;3.92;;;;;;;;;;5028185;28;20445;-85
2023/07/22 02:33:03;;;;;;;7.72;3.60;;;;;;;;;;5039770;28;20041;-85
2023/07/22 02:35:29;;;;;;;8.57;3.65;;;;;;;;;;5041835;28;20150;-85
2023/07/22 02:37:55;;;;;;;7.80;4.50;;;;;;;;;;5028417;28;20041;-85
2023/07/22 02:40:21;;;;;;;8.07;4.68;;;;;;;;;;5027975;28;20034;-85
2023/07/22 02:42:47;;;;;;;9.00;5.13;;;;;;;;;;5028665;28;20414;-85
2023/07/22 02:45:13;;;;;;;6.90;4.00;;;;;;;;;;5029742;28;20052;-85
2023/07/22 02:47:39;;;;;;;7.63;3.90;;;;;;;;;;5029451;28;20124;-85
2023/07/22 02:50:08;;;;;;;9.38;4.60;;;;;;;;;;5029659;28;20046;-85
2023/07/22 02:52:36;;;;;;;9.13;4.45;;;;;;;;;;5036312;28;20090;-85
2023/07/22 02:55:05;;;;;;;8.05;4.75;;;;;;;;;;5030042;28;20124;-85
2023/07/22 02:57:31;;;;;;;7.60;4.88;;;;;;;;;;5041894;28;20171;-84
2023/07/22 02:59:57;;;;;;;8.95;4.10;;;;;;;;;;5032146;28;20128;-84
2023/07/22 03:02:23;;;;;;;9.52;4.72;;;;;;;;;;5050553;28;20049;-85
2023/07/22 03:04:49;;;;;;;10.85;5.10;;;;;;;;;;5050029;28;20393;-85
2023/07/22 03:07:16;;;;;;;8.38;4.43;;;;;;;;;;5031845;28;20041;-85
2023/07/22 03:09:41;;;;;;;9.18;4.40;;;;;;;;;;5007538;28;20044;-85
2023/07/22 03:12:08;;;;;;;7.32;3.70;;;;;;;;;;5029742;28;20134;-83
2023/07/22 03:14:37;;;;;;;16.95;6.63;;;;;;;;;;5029546;28;20156;-83
2023/07/22 03:17:06;;;;;;;8.38;4.70;;;;;;;;;;5049055;28;20115;-83
2023/07/22 03:19:32;;;;;;;10.05;4.70;;;;;;;;;;5017949;28;20033;-83
2023/07/22 03:21:58;;;;;;;10.40;4.65;;;;;;;;;;5029402;28;20187;-83
2023/07/22 03:24:25;;;;;;;6.78;4.30;;;;;;;;;;5037269;28;20054;-83
2023/07/22 03:26:51;;;;;;;7.30;4.30;;;;;;;;;;5035945;28;20396;-83
2023/07/22 03:29:17;;;;;;;9.73;5.35;;;;;;;;;;5028964;28;20049;-82
2023/07/22 03:31:43;;;;;;;8.93;5.22;;;;;;;;;;5047589;28;20044;-83
2023/07/22 03:34:09;;;;;;;9.00;4.35;;;;;;;;;;5032574;28;20037;-83
2023/07/22 03:36:35;;;;;;;10.48;6.38;;;;;;;;;;5015763;28;20115;-83
2023/07/22 03:39:02;;;;;;;9.02;4.68;;;;;;;;;;5041034;28;20053;-83
2023/07/22 03:41:28;;;;;;;9.55;4.90;;;;;;;;;;5014388;28;20079;-83
2023/07/22 03:43:54;;;;;;;8.02;4.45;;;;;;;;;;5030247;28;20048;-83
2023/07/22 03:46:20;;;;;;;8.50;5.10;;;;;;;;;;5042421;28;20044;-83
2023/07/22 03:48:46;;;;;;;8.88;5.18;;;;;;;;;;5034532;28;20065;-83
2023/07/22 03:51:12;;;;;;;9.35;4.88;;;;;;;;;;5032331;28;20041;-83
2023/07/22 03:53:38;;;;;;;11.55;5.72;;;;;;;;;;5042435;28;20052;-83
2023/07/22 03:56:05;;;;;;;8.05;5.07;;;;;;;;;;5035650;28;20037;-83
2023/07/22 03:58:31;;;;;;;8.77;4.22;;;;;;;;;;5006192;28;20045;-83
2023/07/22 04:00:57;;;;;;;9.45;5.20;;;;;;;;;;5041561;28;20088;-83
2023/07/22 04:03:24;;;;;;;10.90;5.28;;;;;;;;;;5031951;28;20037;-83
2023/07/22 04:05:56;;;;;;;11.27;5.85;;;;;;;;;;5016046;28;20072;-83
2023/07/22 04:08:22;;;;;;;9.48;5.50;;;;;;;;;;5013017;28;20504;-83
2023/07/22 04:10:55;;;;;;;10.07;5.18;;;;;;;;;;5022143;28;20040;-83
2023/07/22 04:13:21;;;;;;;9.10;5.10;;;;;;;;;;5050175;28;20060;-83
2023/07/22 04:15:47;;;;;;;8.05;5.32;;;;;;;;;;5045189;28;20044;-83
2023/07/22 04:18:15;;;;;;;8.27;4.50;;;;;;;;;;5050127;28;20033;-83
2023/07/22 04:20:41;;;;;;;10.80;5.05;;;;;;;;;;5032358;28;20033;-83
2023/07/22 04:23:07;;;;;;;11.18;5.70;;;;;;;;;;5016894;28;20041;-83
2023/07/22 04:25:33;;;;;;;9.18;4.55;;;;;;;;;;5042568;28;20394;-83
2023/07/22 04:27:59;;;;;;;9.98;5.50;;;;;;;;;;5050167;28;20044;-83
2023/07/22 04:30:25;;;;;;;10.52;5.28;;;;;;;;;;5026990;28;20040;-83
2023/07/22 04:32:51;;;;;;;10.38;5.45;;;;;;;;;;5025436;28;20094;-83
2023/07/22 04:35:17;;;;;;;10.07;4.75;;;;;;;;;;5049274;28;20444;-83
2023/07/22 04:37:44;;;;;;;10.73;5.85;;;;;;;;;;5020145;28;20063;-83
2023/07/22 04:40:16;;;;;;;10.85;5.93;;;;;;;;;;5015416;28;20098;-82
2023/07/22 04:42:42;;;;;;;11.32;5.65;;;;;;;;;;5048707;28;20315;-83
2023/07/22 04:45:09;;;;;;;9.88;5.40;;;;;;;;;;5028750;28;20033;-83
2023/07/22 04:47:36;;;;;;;9.20;5.15;;;;;;;;;;5031141;28;20122;-83
2023/07/22 04:50:03;;;;;;;7.13;4.82;;;;;;;;;;5010616;28;20090;-83
2023/07/22 04:52:30;;;;;;;12.20;5.70;;;;;;;;;;5014850;28;20071;-83
2023/07/22 04:54:56;;;;;;;10.65;5.38;;;;;;;;;;5045070;28;20335;-83
2023/07/22 04:57:22;;;;;;;12.02;5.90;;;;;;;;;;5021186;28;20044;-83
2023/07/22 04:59:48;;;;;;;11.15;5.95;;;;;;;;;;5031220;28;20092;-83
2023/07/22 05:02:14;;;;;;;8.77;5.15;;;;;;;;;;5041614;28;21286;-85
2023/07/22 05:04:40;;;;;;;11.52;5.82;;;;;;;;;;5026876;28;20033;-85
2023/07/22 05:07:06;;;;;;;8.90;5.20;;;;;;;;;;5030462;28;20492;-84
2023/07/22 05:09:33;;;;;;;10.45;4.97;;;;;;;;;;5031360;28;20045;-83
2023/07/22 05:11:59;;;;;;;11.45;5.10;;;;;;;;;;5024189;28;20041;-83
2023/07/22 05:14:25;;;;;;;10.18;5.22;;;;;;;;;;5009506;28;20078;-87
2023/07/22 05:16:51;;;;;;;8.75;5.07;;;;;;;;;;5027650;28;20033;-87
2023/07/22 05:19:18;;;;;;;8.55;4.85;;;;;;;;;;5045420;28;20041;-88
2023/07/22 05:21:44;;;;;;;9.10;5.43;;;;;;;;;;5014786;28;20091;-89
2023/07/22 05:24:10;;;;;;;8.00;4.68;;;;;;;;;;5021547;28;20049;-93
2023/07/22 05:26:36;;;;;;;8.35;5.07;;;;;;;;;;4996237;28;20401;-92
2023/07/22 05:29:02;;;;;;;11.18;5.60;;;;;;;;;;5012551;28;20041;-90
2023/07/22 05:31:28;;;;;;;9.75;4.65;;;;;;;;;;5028732;28;20041;-86
2023/07/22 05:33:54;;;;;;;10.25;5.22;;;;;;;;;;5031023;28;20055;-92
2023/07/22 05:36:22;;;;;;;9.98;5.70;;;;;;;;;;5021529;28;20033;-86
2023/07/22 05:38:48;;;;;;;10.02;5.07;;;;;;;;;;5008464;28;20040;-94
2023/07/22 05:41:14;;;;;;;9.70;5.00;;;;;;;;;;5020487;28;20424;-88
2023/07/22 05:43:40;;;;;;;8.77;4.75;;;;;;;;;;5038903;28;20049;-88
2023/07/22 05:46:06;;;;;;;7.15;4.63;;;;;;;;;;5054059;28;20047;-93
2023/07/22 05:48:32;;;;;;;10.75;5.68;;;;;;;;;;5030861;28;20042;-89
2023/07/22 05:50:58;;;;;;;10.02;5.13;;;;;;;;;;5013877;28;20413;-92
2023/07/22 05:53:24;;;;;;;7.63;4.65;;;;;;;;;;4999128;28;20053;-90
2023/07/22 05:55:50;;;;;;;9.82;5.25;;;;;;;;;;5016966;28;20038;-83
2023/07/22 05:58:20;;;;;;;10.63;4.93;;;;;;;;;;5018012;28;20409;-83
2023/07/22 06:00:47;;;;;;;12.95;5.82;;;;;;;;;;5026473;28;20477;-83
2023/07/22 06:03:13;;;;;;;9.05;5.53;;;;;;;;;;5028708;28;20045;-84
2023/07/22 06:05:39;;;;;;;8.65;4.25;;;;;;;;;;5015734;28;20494;-84
2023/07/22 06:08:05;;;;;;;8.88;5.38;;;;;;;;;;5031613;28;20038;-83
2023/07/22 06:10:32;;;;;;;9.23;5.45;;;;;;;;;;5027046;28;20069;-84
2023/07/22 06:12:58;;;;;;;9.05;5.90;;;;;;;;;;5022265;28;20037;-83
2023/07/22 06:15:24;;;;;;;10.20;5.32;;;;;;;;;;5028544;28;20040;-83
2023/07/22 06:17:50;;;;;;;9.30;5.35;;;;;;;;;;5038887;28;20227;-83
2023/07/22 06:20:16;;;;;;;9.95;5.22;;;;;;;;;;5027825;28;20452;-83
2023/07/22 06:22:42;;;;;;;11.13;6.18;;;;;;;;;;5044281;28;20041;-82
2023/07/22 06:25:09;;;;;;;11.40;5.43;;;;;;;;;;5029974;28;20061;-83
2023/07/22 06:27:35;;;;;;;10.05;5.70;;;;;;;;;;5039920;28;20045;-83
2023/07/22 06:30:01;;;;;;;9.25;4.90;;;;;;;;;;5046083;28;20045;-83
2023/07/22 06:32:29;;;;;;;9.38;5.38;;;;;;;;;;5041301;28;20405;-83
2023/07/22 06:34:56;;;;;;;10.73;6.25;;;;;;;;;;5042014;28;20072;-82
2023/07/22 06:37:22;;;;;;;13.25;7.07;;;;;;;;;;5048130;28;20091;-82
2023/07/22 06:39:48;;;;;;;12.45;6.90;;;;;;;;;;5046100;28;20090;-82
2023/07/22 06:42:14;;;;;;;11.38;6.25;;;;;;;;;;5045420;28;20029;-83
2023/07/22 06:44:40;;;;;;;11.35;6.25;;;;;;;;;;5027527;28;20472;-83
2023/07/22 06:47:07;;;;;;;9.90;5.57;;;;;;;;;;5048686;28;20041;-83
2023/07/22 06:49:32;;;;;;;13.73;7.10;;;;;;;;;;5040154;28;20045;-82
2023/07/22 06:51:59;;;;;;;12.77;6.90;;;;;;;;;;5038758;28;20040;-84
2023/07/22 06:54:25;;;;;;;14.27;7.43;;;;;;;;;;5031198;28;20063;-84
2023/07/22 06:56:51;;;;;;;12.77;6.72;;;;;;;;;;5037990;28;20033;-85
2023/07/22 06:59:17;;;;;;;12.02;6.78;;;;;;;;;;5022418;28;20032;-87
2023/07/22 07:01:43;;;;;;;12.35;6.22;;;;;;;;;;5022683;28;20056;-85
2023/07/22 07:04:09;;;;;;;14.88;7.38;;;;;;;;;;5031810;28;20201;-86
2023/07/22 07:06:35;;;;;;;14.45;8.25;;;;;;;;;;5017331;28;20136;-85
2023/07/22 07:09:01;;;;;;;12.55;6.93;;;;;;;;;;5026345;28;20041;-87
2023/07/22 07:11:28;;;;;;;13.13;6.78;;;;;;;;;;5044273;28;20049;-85
2023/07/22 07:13:54;;;;;;;15.38;7.85;;;;;;;;;;5025400;28;20092;-86
2023/07/22 07:16:27;;;;;;;13.75;7.70;;;;;;;;;;5020429;28;20049;-83
2023/07/22 07:18:54;;;;;;;14.40;8.32;;;;;;;;;;5007814;28;20408;-84
2023/07/22 07:21:20;;;;;;;14.77;8.18;;;;;;;;;;5023422;28;20044;-83
2023/07/22 07:23:46;;;;;;;13.32;6.72;;;;;;;;;;5017142;28;20325;-91
2023/07/22 07:26:12;;;;;;;10.65;6.13;;;;;;;;;;5040835;28;20076;-94
2023/07/22 07:28:39;;;;;;;11.80;6.25;;;;;;;;;;5052759;28;20369;-92
2023/07/22 07:31:05;;;;;;;13.40;7.82;;;;;;;;;;5015666;28;20041;-92
2023/07/22 07:33:31;;;;;;;13.25;7.05;;;;;;;;;;5034457;28;20390;-91
2023/07/22 07:35:57;;;;;;;14.45;7.93;;;;;;;;;;5033341;28;20052;-91
2023/07/22 07:38:23;;;;;;;12.30;6.68;;;;;;;;;;5030660;28;20045;-86
2023/07/22 07:40:56;;;;;;;13.68;7.10;;;;;;;;;;5039258;28;20064;-86
2023/07/22 07:43:22;;;;;;;12.68;7.45;;;;;;;;;;5046652;28;20072;-86
2023/07/22 07:45:48;;;;;;;14.27;8.02;;;;;;;;;;5039889;28;20088;-85
2023/07/22 07:48:14;;;;;;;14.15;7.03;;;;;;;;;;5025025;28;20044;-83
2023/07/22 07:50:42;;;;;;;16.08;8.13;;;;;;;;;;5022020;28;20116;-85
2023/07/22 07:53:08;;;;;;;12.88;7.78;;;;;;;;;;5039204;28;20334;-84
2023/07/22 07:55:34;;;;;;;11.40;7.10;;;;;;;;;;5031680;28;20099;-84
2023/07/22 07:58:00;;;;;;;16.80;8.25;;;;;;;;;;5027356;28;20049;-86
2023/07/22 08:00:26;;;;;;;16.02;7.47;;;;;;;;;;5045511;28;20151;-87
2023/07/22 08:02:52;;;;;;;12.40;7.00;;;;;;;;;;5049825;28;20083;-86
2023/07/22 08:05:18;;;;;;;14.25;7.35;;;;;;;;;;5032739;28;20049;-87
2023/07/22 08:07:44;;;;;;;13.15;7.35;;;;;;;;;;5034088;28;20068;-87
2023/07/22 08:10:10;;;;;;;9.82;5.82;;;;;;;;;;5012889;28;20061;-86
2023/07/22 08:12:37;;;;;;;13.30;7.10;;;;;;;;;;5019727;28;20490;-87
2023/07/22 08:15:03;;;;;;;9.98;6.32;;;;;;;;;;5024746;28;20059;-87
2023/07/22 08:17:29;;;;;;;13.48;7.30;;;;;;;;;;5040985;28;20167;-86
2023/07/22 08:19:55;;;;;;;11.02;7.20;;;;;;;;;;5026945;28;20464;-89
2023/07/22 08:22:21;;;;;;;12.00;7.15;;;;;;;;;;5050006;28;20047;-86
2023/07/22 08:24:47;;;;;;;11.00;6.22;;;;;;;;;;5033586;28;20041;-86
2023/07/22 08:27:13;;;;;;;10.45;6.78;;;;;;;;;;5046389;28;20073;-94
2023/07/22 08:29:39;;;;;;;9.73;6.55;;;;;;;;;;5049531;28;20131;-88
2023/07/22 08:32:06;;;;;;;11.25;5.95;;;;;;;;;;5013146;28;20049;-87
2023/07/22 08:34:32;;;;;;;12.13;6.00;;;;;;;;;;5030044;28;20538;-89
2023/07/22 08:36:58;;;;;;;10.55;5.85;;;;;;;;;;5050305;28;20041;-91
2023/07/22 08:39:24;;;;;;;11.02;7.30;;;;;;;;;;5025477;28;20042;-90
2023/07/22 08:41:50;;;;;;;11.15;6.35;;;;;;;;;;5030439;28;20041;-89
2023/07/22 08:44:19;;;;;;;11.77;6.28;;;;;;;;;;5037679;28;20099;-88
2023/07/22 08:46:46;;;;;;;12.88;6.78;;;;;;;;;;5009701;28;20136;-88
2023/07/22 08:49:12;;;;;;;11.73;6.30;;;;;;;;;;5042143;28;20076;-89
2023/07/22 08:51:38;;;;;;;10.88;6.43;;;;;;;;;;5042624;28;20045;-88
2023/07/22 08:54:04;;;;;;;9.60;6.03;;;;;;;;;;5011149;28;20048;-89
2023/07/22 08:56:31;;;;;;;11.43;6.18;;;;;;;;;;5029426;28;20195;-87
2023/07/22 08:58:57;;;;;;;11.43;6.30;;;;;;;;;;5026560;28;20107;-82
2023/07/22 09:01:24;;;;;;;9.70;5.57;;;;;;;;;;5035583;28;20095;-87
2023/07/22 09:03:52;;;;;;;11.70;5.70;;;;;;;;;;5029122;28;20045;-88
2023/07/22 09:06:19;;;;;;;11.70;6.28;;;;;;;;;;5029247;28;20472;-88
2023/07/22 09:08:45;;;;;;;8.63;6.30;;;;;;;;;;5029539;28;20037;-87
2023/07/22 09:11:11;;;;;;;11.05;6.65;;;;;;;;;;5045656;28;20044;-87
2023/07/22 09:13:39;;;;;;;9.65;5.93;;;;;;;;;;5009064;28;20120;-88
2023/07/22 09:16:05;;;;;;;9.60;5.60;;;;;;;;;;5027976;28;20045;-88
2023/07/22 09:18:33;;;;;;;7.70;5.40;;;;;;;;;;5027465;28;20090;-86
2023/07/22 09:20:59;;;;;;;7.93;4.93;;;;;;;;;;5033451;28;20065;-89
2023/07/22 09:23:32;;;;;;;10.75;6.13;;;;;;;;;;5028918;28;20096;-87
2023/07/22 09:26:08;;;;;;;8.82;5.30;;;;;;;;;;5029387;28;20393;-92
2023/07/22 09:28:49;;;;;;;7.40;4.75;;;;;;;;;;5024882;28;20041;-90
2023/07/22 09:31:16;;;;;;;9.25;5.82;;;;;;;;;;5011748;28;20045;-90
2023/07/22 09:33:42;;;;;;;9.25;5.22;;;;;;;;;;5011382;28;20052;-89
2023/07/22 09:36:10;;;;;;;7.80;4.80;;;;;;;;;;5009676;28;20077;-91
2023/07/22 09:38:37;;;;;;;6.65;4.70;;;;;;;;;;5009958;28;20536;-91
2023/07/22 09:41:02;;;;;;;7.90;4.40;;;;;;;;;;5026321;28;20045;-90
2023/07/22 09:43:30;;;;;;;7.32;4.18;;;;;;;;;;5011264;28;20064;-90
2023/07/22 09:45:56;;;;;;;6.03;4.30;;;;;;;;;;5027586;28;20472;-91
2023/07/22 09:48:22;;;;;;;6.93;4.20;;;;;;;;;;5028841;28;20045;-90
2023/07/22 09:50:58;;;;;;;6.32;3.97;;;;;;;;;;5012050;28;20067;-90
2023/07/22 09:53:24;;;;;;;7.38;4.22;;;;;;;;;;5029126;28;20161;-91
2023/07/22 09:55:53;;;;;;;6.20;4.18;;;;;;;;;;5030662;28;20048;-90
2023/07/22 09:58:19;;;;;;;6.40;3.75;;;;;;;;;;5035978;28;20033;-90
2023/07/22 10:00:48;;;;;;;7.82;4.28;;;;;;;;;;5032303;28;20064;-89
2023/07/22 10:03:16;;;;;;;6.55;4.43;;;;;;;;;;5047853;28;20537;-86
2023/07/22 10:05:42;;;;;;;7.35;3.45;;;;;;;;;;5028275;28;20378;-86
2023/07/22 10:08:09;;;;;;;5.47;3.33;;;;;;;;;;5053167;28;20037;-86
2023/07/22 10:10:39;;;;;;;5.68;3.65;;;;;;;;;;5033913;28;20069;-86
2023/07/22 10:13:05;;;;;;;5.90;3.72;;;;;;;;;;5043128;28;20383;-86
2023/07/22 10:15:35;;;;;;;7.28;3.97;;;;;;;;;;5031358;28;20038;-86
2023/07/22 10:18:02;;;;;;;5.38;3.58;;;;;;;;;;5021433;28;20112;-91
2023/07/22 10:20:29;;;;;;;6.80;3.65;;;;;;;;;;5031256;28;20033;-91
2023/07/22 10:22:55;;;;;;;4.40;3.33;;;;;;;;;;5033221;28;20425;-85
2023/07/22 10:25:22;;;;;;;4.82;2.50;;;;;;;;;;5036871;28;20041;-93
2023/07/22 10:27:51;;;;;;;3.00;2.40;;;;;;;;;;5033848;28;20363;-92
2023/07/22 10:30:18;;;;;;;4.15;2.55;;;;;;;;;;5023027;28;20110;-96
2023/07/22 10:32:48;;;;;;;3.47;2.30;;;;;;;;;;5040473;28;20041;-93
2023/07/22 10:35:37;;;;;;;3.40;2.53;;;;;;;;;;5045405;28;20033;-95
2023/07/22 10:38:09;;;;;;;4.55;2.17;;;;;;;;;;4981623;28;20047;-93
2023/07/22 10:40:51;;;;;;;4.07;3.10;;;;;;;;;;4986193;28;20053;-96
2023/07/22 10:43:18;;;;;;;4.53;2.70;;;;;;;;;;4997098;28;20517;-95
2023/07/22 10:45:49;;;;;;;3.33;2.47;;;;;;;;;;5004263;28;20038;-95
2023/07/22 10:48:15;;;;;;;3.45;2.33;;;;;;;;;;4992835;28;20073;-93
2023/07/22 10:50:43;;;;;;;3.70;2.38;;;;;;;;;;4984957;28;20135;-86
2023/07/22 10:53:10;;;;;;;3.05;2.75;;;;;;;;;;4985995;28;20238;-86
2023/07/22 10:55:56;;;;;;;4.43;3.08;;;;;;;;;;4994472;28;20133;-85
2023/07/22 10:58:24;;;;;;;3.53;2.67;;;;;;;;;;4997063;28;20033;-85
2023/07/22 11:00:50;;;;;;;4.35;2.65;;;;;;;;;;4993416;28;20058;-86
2023/07/22 11:03:18;;;;;;;3.50;2.55;;;;;;;;;;5009724;28;20155;-87
2023/07/22 11:05:51;;;;;;;3.95;2.80;;;;;;;;;;4988987;28;20050;-88
2023/07/22 11:08:17;;;;;;;3.78;2.45;;;;;;;;;;4989832;28;20412;-91
2023/07/22 11:10:54;;;;;;;4.28;3.05;;;;;;;;;;4978349;28;20083;-89
2023/07/22 11:13:27;;;;;;;3.88;2.83;;;;;;;;;;4976755;28;20077;-88
2023/07/22 11:15:53;;;;;;;5.85;3.08;;;;;;;;;;5008339;28;20421;-91
2023/07/22 11:18:19;;;;;;;4.50;3.00;;;;;;;;;;5048881;28;20040;-90
2023/07/22 11:20:44;;;;;;;6.05;3.67;;;;;;;;;;5028715;28;20041;-87
2023/07/22 11:23:11;;;;;;;8.13;3.60;;;;;;;;;;5030442;28;20047;-91
2023/07/22 11:25:37;;;;;;;7.30;3.63;;;;;;;;;;5031816;28;20044;-85
2023/07/22 11:28:04;;;;;;;7.50;3.85;;;;;;;;;;5027297;28;20048;-90
2023/07/22 11:30:30;;;;;;;7.78;4.35;;;;;;;;;;5029828;28;20132;-88
2023/07/22 11:32:58;;;;;;;5.43;3.92;;;;;;;;;;5035035;28;20057;-89
2023/07/22 11:35:24;;;;;;;6.05;4.05;;;;;;;;;;5030835;28;20044;-90
2023/07/22 11:38:00;;;;;;;5.78;3.92;;;;;;;;;;5015351;28;20516;-89
2023/07/22 11:40:33;;;;;;;7.93;4.90;;;;;;;;;;5015724;28;20037;-91
2023/07/22 11:42:59;;;;;;;6.55;4.50;;;;;;;;;;5036070;28;20037;-90
2023/07/22 11:45:25;;;;;;;7.05;4.05;;;;;;;;;;5023714;28;20077;-88
2023/07/22 11:47:51;;;;;;;4.22;3.22;;;;;;;;;;5028960;28;20075;-82
2023/07/22 11:50:17;;;;;;;4.47;3.95;;;;;;;;;;5038860;28;20091;-88
2023/07/22 11:52:43;;;;;;;5.55;3.65;;;;;;;;;;5030977;28;20045;-89
2023/07/22 11:55:11;;;;;;;5.40;3.83;;;;;;;;;;5033457;28;20151;-91
2023/07/22 11:57:41;;;;;;;5.38;3.50;;;;;;;;;;5004987;28;20041;-90
2023/07/22 12:00:09;;;;;;;4.10;3.58;;;;;;;;;;5022633;28;20087;-89
2023/07/22 12:02:36;;;;;;;7.20;4.55;;;;;;;;;;5023087;28;20406;-90
2023/07/22 12:05:05;;;;;;;5.18;3.83;;;;;;;;;;5027800;28;20048;-85
2023/07/22 12:07:35;;;;;;;4.80;3.85;;;;;;;;;;5038189;28;20045;-84
2023/07/22 12:10:02;;;;;;;5.93;3.97;;;;;;;;;;5033554;28;20030;-86
2023/07/22 12:12:37;;;;;;;5.63;3.55;;;;;;;;;;5027441;28;20045;-86
2023/07/22 12:15:15;;;;;;;5.30;4.05;;;;;;;;;;5035184;28;20045;-85
2023/07/22 12:18:00;;;;;;;6.63;4.13;;;;;;;;;;5024478;28;20060;-87
2023/07/22 12:20:27;;;;;;;5.53;4.18;;;;;;;;;;5018999;28;20045;-86
2023/07/22 12:22:53;;;;;;;5.95;4.43;;;;;;;;;;5028035;28;20041;-87
2023/07/22 12:25:19;;;;;;;6.78;4.10;;;;;;;;;;5010120;28;20046;-86
2023/07/22 12:27:45;;;;;;;6.97;4.88;;;;;;;;;;5026057;28;20054;-85
2023/07/22 12:30:12;;;;;;;5.53;3.88;;;;;;;;;;5027291;28;20033;-86
2023/07/22 12:32:38;;;;;;;6.47;4.50;;;;;;;;;;5027355;28;20545;-89
2023/07/22 12:35:04;;;;;;;8.77;6.45;;;;;;;;;;5028869;28;20037;-87
2023/07/22 12:37:30;;;;;;;7.25;5.43;;;;;;;;;;5025470;28;20041;-87
2023/07/22 12:39:57;;;;;;;8.45;6.28;;;;;;;;;;5018171;28;20074;-89
2023/07/22 12:42:23;;;;;;;7.22;5.82;;;;;;;;;;5019753;28;20037;-90
2023/07/22 12:44:49;;;;;;;7.50;5.50;;;;;;;;;;5028065;28;20049;-90
2023/07/22 12:47:15;;;;;;;8.48;6.20;;;;;;;;;;5030752;28;20045;-87
2023/07/22 12:49:42;;;;;;;8.68;6.13;;;;;;;;;;5031498;28;20108;-89
2023/07/22 12:52:09;;;;;;;8.10;5.93;;;;;;;;;;5014200;28;20060;-89
2023/07/22 12:54:38;;;;;;;9.52;5.20;;;;;;;;;;5014061;28;20056;-89
2023/07/22 12:57:05;;;;;;;7.95;5.32;;;;;;;;;;5032136;28;20116;-90
2023/07/22 12:59:31;;;;;;;5.80;5.15;;;;;;;;;;5013217;28;20083;-92
2023/07/22 13:01:57;;;;;;;6.88;4.82;;;;;;;;;;5036485;28;20060;-90
2023/07/22 13:04:24;;;;;;;5.35;4.25;;;;;;;;;;5037124;28;20047;-93
2023/07/22 13:06:51;;;;;;;6.30;4.60;;;;;;;;;;5032403;28;20132;-90
2023/07/22 13:09:17;;;;;;;5.60;3.97;;;;;;;;;;5031925;28;20037;-92
2023/07/22 13:11:43;;;;;;;5.47;3.78;;;;;;;;;;5031532;28;20120;-91
2023/07/22 13:14:09;;;;;;;5.18;3.85;;;;;;;;;;5032877;28;20052;-92
2023/07/22 13:16:36;;;;;;;4.57;3.30;;;;;;;;;;5014249;28;20041;-93
2023/07/22 13:19:03;;;;;;;4.90;3.42;;;;;;;;;;5017567;28;20045;-92
2023/07/22 13:21:29;;;;;;;4.07;2.88;;;;;;;;;;5031526;28;20405;-91
2023/07/22 13:23:55;;;;;;;5.53;3.20;;;;;;;;;;5025503;28;20469;-91
2023/07/22 13:26:21;;;;;;;3.30;2.97;;;;;;;;;;5016320;28;20041;-90
2023/07/22 13:28:47;;;;;;;3.58;2.92;;;;;;;;;;5026483;28;20070;-88
2023/07/22 13:31:13;;;;;;;3.42;2.97;;;;;;;;;;5013784;28;20037;-88
2023/07/22 13:33:39;;;;;;;4.55;3.25;;;;;;;;;;5038797;28;20048;-90
2023/07/22 13:36:06;;;;;;;3.83;3.35;;;;;;;;;;5026328;28;20115;-90
2023/07/22 13:38:32;;;;;;;5.00;3.95;;;;;;;;;;5027575;28;20049;-88
2023/07/22 13:40:58;;;;;;;4.95;3.67;;;;;;;;;;5028695;28;20055;-88
2023/07/22 13:43:25;;;;;;;5.35;3.90;;;;;;;;;;5028455;28;20045;-88
2023/07/22 13:45:51;;;;;;;5.50;3.63;;;;;;;;;;5027460;28;20048;-89
2023/07/22 13:48:17;;;;;;;6.82;4.35;;;;;;;;;;5044628;28;20037;-87
2023/07/22 13:50:43;;;;;;;5.28;4.10;;;;;;;;;;5031557;28;20041;-86
2023/07/22 13:53:09;;;;;;;6.35;4.63;;;;;;;;;;5049467;28;20124;-85
2023/07/22 13:55:35;;;;;;;6.63;4.40;;;;;;;;;;5012935;28;20045;-85
2023/07/22 13:58:01;;;;;;;5.30;3.88;;;;;;;;;;5028854;28;20479;-85
2023/07/22 14:00:27;;;;;;;6.32;4.68;;;;;;;;;;5010591;28;20065;-84
2023/07/22 14:02:53;;;;;;;5.88;4.65;;;;;;;;;;5043290;28;20151;-84
2023/07/22 14:05:19;;;;;;;4.70;3.83;;;;;;;;;;5030901;28;20045;-83
2023/07/22 14:07:45;;;;;;;7.22;4.82;;;;;;;;;;5012200;28;20042;-81
2023/07/22 14:10:11;;;;;;;5.30;4.22;;;;;;;;;;5031240;28;20080;-81
2023/07/22 14:12:37;;;;;;;7.35;4.95;;;;;;;;;;5018402;28;20486;-81
2023/07/22 14:15:06;;;;;;;5.88;4.93;;;;;;;;;;5021652;28;20117;-81
2023/07/22 14:17:32;;;;;;;6.88;5.22;;;;;;;;;;5024681;28;20091;-81
2023/07/22 14:19:58;;;;;;;7.68;5.22;;;;;;;;;;5025037;28;20371;-81
2023/07/22 14:22:24;;;;;;;5.93;4.03;;;;;;;;;;5023715;28;20098;-80
2023/07/22 14:24:50;;;;;;;8.38;5.25;;;;;;;;;;5008560;28;20041;-80
2023/07/22 14:27:16;;;;;;;5.85;4.65;;;;;;;;;;5008402;28;20041;-81
2023/07/22 14:29:42;;;;;;;9.40;4.95;;;;;;;;;;5022910;28;20049;-82
2023/07/22 14:32:08;;;;;;;7.47;5.30;;;;;;;;;;5009679;28;20076;-82
2023/07/22 14:34:34;;;;;;;7.13;5.32;;;;;;;;;;5024771;28;20378;-81
2023/07/22 14:37:01;;;;;;;7.22;4.90;;;;;;;;;;5027377;28;20171;-81